Time;durP1;ratioP1;P1;durP2;ratioP2;P2;SDS_P1;SDS_P2;PMS_P1;PMS_P2;Temp;Humidity;BMP_temperature;BMP_pressure;BME280_temperature;BME280_humidity;BME280_pressure;Samples;Min_cycle;Max_cycle;Signal;HPM_P1;HPM_P2
2021/11/07 00:02:39;;;;;;;28.90;22.40;;;;;;;6.50;64.19;100964.89;118392;1178;22838;-77
2021/11/07 00:05:03;;;;;;;25.80;20.80;;;;;;;6.41;64.25;100963.20;118172;1179;22622;-77
2021/11/07 00:10:22;;;;;;;26.80;21.10;;;;;;;6.29;64.54;100950.84;118279;1179;22897;-76
2021/11/07 00:12:54;;;;;;;24.80;21.60;;;;;;;6.23;64.65;100946.42;117912;1180;21879;-77
2021/11/07 00:15:27;;;;;;;27.10;22.60;;;;;;;6.19;64.84;100944.32;118067;1179;21859;-77
2021/11/07 00:18:05;;;;;;;25.50;22.60;;;;;;;6.18;65.05;100942.16;118238;1177;23421;-76
2021/11/07 00:20:38;;;;;;;26.10;21.50;;;;;;;6.16;65.11;100941.56;118450;1171;23305;-77
2021/11/07 00:26:04;;;;;;;25.40;21.50;;;;;;;6.14;65.34;100929.17;119014;1164;22415;-77
2021/11/07 00:28:47;;;;;;;;;;;;;;;6.14;65.33;100922.52;119050;1170;22837;-77
2021/11/07 00:31:32;;;;;;;26.00;21.00;;;;;;;6.07;65.54;100916.09;118963;1171;21853;-77
2021/11/07 00:36:35;;;;;;;24.90;18.90;;;;;;;6.05;65.47;100909.80;119225;1170;23436;-76
2021/11/07 00:41:56;;;;;;;20.70;18.30;;;;;;;6.04;65.45;100907.25;119196;1170;21878;-76
2021/11/07 00:47:02;;;;;;;23.50;20.20;;;;;;;5.99;65.47;100905.56;118936;1172;23527;-77
2021/11/07 00:54:55;;;;;;;28.00;21.50;;;;;;;5.87;65.60;100889.37;118485;1177;23440;-77
2021/11/07 01:00:23;;;;;;;25.30;20.00;;;;;;;5.87;65.69;100881.51;118366;1178;21866;-77
2021/11/07 01:02:58;;;;;;;27.10;20.30;;;;;;;5.82;65.55;100879.98;118205;1178;22638;-78
2021/11/07 01:05:33;;;;;;;26.60;21.10;;;;;;;5.76;65.55;100876.60;118317;1177;23675;-77
2021/11/07 01:08:02;;;;;;;29.20;21.20;;;;;;;5.73;65.73;100868.51;118683;1174;21864;-77
2021/11/07 01:10:31;;;;;;;24.40;21.10;;;;;;;5.65;65.77;100865.77;118779;1172;22515;-77
2021/11/07 01:12:59;;;;;;;31.80;22.30;;;;;;;5.60;65.89;100860.81;118867;1174;21854;-77
2021/11/07 01:15:30;;;;;;;23.90;18.80;;;;;;;5.56;66.13;100858.15;118900;1171;23532;-77
2021/11/07 01:18:00;;;;;;;24.80;18.80;;;;;;;5.52;66.13;100855.98;118825;1174;21929;-77
2021/11/07 01:20:32;;;;;;;28.70;21.50;;;;;;;5.46;66.35;100858.57;118640;1173;21876;-77
2021/11/07 01:25:32;;;;;;;25.80;20.00;;;;;;;5.42;66.59;100847.00;118390;1177;21854;-77
2021/11/07 01:28:05;;;;;;;27.90;20.40;;;;;;;5.42;66.64;100837.92;118353;1177;21918;-77
2021/11/07 01:30:38;;;;;;;27.70;20.90;;;;;;;5.40;66.64;100831.58;118222;1179;22662;-77
2021/11/07 01:33:13;;;;;;;23.90;19.80;;;;;;;5.39;66.77;100824.73;118336;1179;21900;-77
2021/11/07 01:38:16;;;;;;;21.90;17.30;;;;;;;5.35;66.88;100826.60;118325;1177;23429;-77
2021/11/07 01:43:30;;;;;;;22.80;18.30;;;;;;;5.32;66.99;100816.87;119036;1173;21863;-78
2021/11/07 01:46:15;;;;;;;22.00;18.50;;;;;;;5.33;67.03;100811.89;118967;1173;21866;-77
2021/11/07 01:48:50;;;;;;;21.10;17.10;;;;;;;5.34;66.99;100807.32;119039;1170;21883;-76
2021/11/07 01:51:21;;;;;;;21.60;18.30;;;;;;;5.33;67.03;100804.41;118996;1174;21874;-78
2021/11/07 01:53:54;;;;;;;22.60;17.70;;;;;;;5.33;67.03;100803.86;118844;1174;23416;-76
2021/11/07 01:56:23;;;;;;;20.60;17.80;;;;;;;5.33;67.05;100803.05;118782;1174;23576;-77
2021/11/07 01:58:51;;;;;;;22.70;19.20;;;;;;;5.30;67.04;100798.34;118468;1174;21853;-77
2021/11/07 02:01:24;;;;;;;24.10;19.10;;;;;;;5.28;67.08;100792.11;118395;1174;21874;-77
2021/11/07 02:03:52;;;;;;;26.70;19.50;;;;;;;5.24;67.03;100781.95;118308;1177;22325;-77
2021/11/07 02:06:21;;;;;;;24.70;18.60;;;;;;;5.22;67.12;100776.02;118602;1164;21894;-77
2021/11/07 02:08:49;;;;;;;25.60;18.90;;;;;;;5.20;67.22;100770.39;118015;1178;23636;-77
2021/11/07 02:11:17;;;;;;;24.40;18.80;;;;;;;5.20;67.26;100762.33;118209;1168;21867;-76
2021/11/07 02:13:49;;;;;;;22.30;17.20;;;;;;;5.20;67.29;100756.91;118326;1177;23454;-76
2021/11/07 02:16:21;;;;;;;22.80;18.40;;;;;;;5.18;67.17;100749.06;118319;1175;22100;-76
2021/11/07 02:18:49;;;;;;;22.30;17.00;;;;;;;5.13;67.21;100739.80;118910;1174;21887;-76
2021/11/07 02:21:18;;;;;;;23.30;18.20;;;;;;;5.12;67.40;100733.27;118901;1174;22827;-76
2021/11/07 02:23:46;;;;;;;33.30;24.60;;;;;;;5.10;67.39;100733.10;118902;1174;21873;-76
2021/11/07 02:26:14;;;;;;;21.80;17.60;;;;;;;5.07;67.47;100728.31;118812;1172;22320;-76
2021/11/07 02:28:46;;;;;;;24.40;19.30;;;;;;;5.03;67.54;100724.24;118814;1173;21882;-76
2021/11/07 02:31:18;;;;;;;21.90;16.30;;;;;;;5.02;67.69;100717.85;118940;1171;21868;-75
2021/11/07 02:33:46;;;;;;;;;;;;;;;5.04;67.75;100711.77;119016;1173;22573;-76
2021/11/07 02:36:18;;;;;;;24.60;17.00;;;;;;;4.98;67.86;100704.55;119116;1173;22350;-76
2021/11/07 02:38:48;;;;;;;24.50;17.50;;;;;;;4.98;67.89;100697.95;118476;1176;23603;-76
2021/11/07 02:41:17;;;;;;;32.20;21.30;;;;;;;5.01;67.96;100694.54;118715;1176;21893;-76
2021/11/07 02:43:52;;;;;;;27.10;20.50;;;;;;;5.04;67.91;100693.23;118336;1176;22471;-76
2021/11/07 02:46:22;;;;;;;25.30;18.20;;;;;;;5.06;67.76;100690.48;118402;1174;21850;-76
2021/11/07 02:48:57;;;;;;;19.30;16.00;;;;;;;5.05;67.63;100689.31;118813;1175;21861;-76
2021/11/07 02:51:30;;;;;;;23.30;17.50;;;;;;;5.02;67.52;100689.27;118775;1163;22928;-76
2021/11/07 02:54:01;;;;;;;20.40;16.50;;;;;;;4.99;67.63;100689.49;118977;1174;21881;-76
2021/11/07 02:56:30;;;;;;;21.70;17.40;;;;;;;4.95;67.60;100683.37;118994;1170;21888;-76
2021/11/07 02:59:00;;;;;;;20.60;16.40;;;;;;;4.91;67.67;100685.23;118778;1175;21914;-77
2021/11/07 03:01:29;;;;;;;21.80;17.00;;;;;;;4.88;67.77;100684.91;118736;1174;23406;-76
2021/11/07 03:04:04;;;;;;;20.90;16.60;;;;;;;4.87;67.85;100682.38;118856;1174;21864;-76
2021/11/07 03:06:34;;;;;;;22.00;16.80;;;;;;;4.85;67.86;100677.99;118635;1177;22040;-76
2021/11/07 03:09:10;;;;;;;21.20;16.90;;;;;;;4.85;67.96;100678.39;118514;1175;21923;-75
2021/11/07 03:11:41;;;;;;;27.40;18.70;;;;;;;4.85;68.05;100669.50;118322;1177;22979;-76
2021/11/07 03:14:29;;;;;;;20.50;17.30;;;;;;;4.87;68.11;100667.56;118423;1174;23507;-76
2021/11/07 03:16:58;;;;;;;20.00;15.20;;;;;;;4.90;68.13;100668.89;118493;1174;21857;-76
2021/11/07 03:19:27;;;;;;;18.00;15.20;;;;;;;4.92;68.11;100666.98;118872;1171;21889;-75
2021/11/07 03:22:00;;;;;;;16.30;14.10;;;;;;;4.96;68.16;100664.40;118881;1174;21881;-75
2021/11/07 03:24:29;;;;;;;17.70;15.10;;;;;;;4.98;68.02;100651.02;118944;1172;22624;-76
2021/11/07 03:27:05;;;;;;;16.10;13.40;;;;;;;4.97;67.94;100635.00;119282;1170;21863;-75
2021/11/07 03:29:33;;;;;;;17.80;14.50;;;;;;;4.98;67.96;100631.09;119238;1170;23406;-75
2021/11/07 03:34:33;;;;;;;17.20;14.50;;;;;;;5.03;67.95;100628.60;119253;1170;21869;-76
2021/11/07 03:37:08;;;;;;;16.90;13.40;;;;;;;5.05;67.84;100621.75;119331;1164;22625;-78
2021/11/07 03:39:40;;;;;;;17.00;13.40;;;;;;;5.09;67.91;100616.22;119250;1170;21861;-78
2021/11/07 03:42:18;;;;;;;15.00;13.40;;;;;;;5.15;67.84;100609.10;119220;1170;21974;-76
2021/11/07 03:44:47;;;;;;;16.10;13.80;;;;;;;5.19;67.68;100606.52;119294;1170;22574;-76
2021/11/07 03:47:15;;;;;;;18.90;14.20;;;;;;;5.17;67.33;100604.54;119130;1172;22524;-76
2021/11/07 03:49:45;;;;;;;15.10;13.20;;;;;;;5.17;67.42;100603.34;119320;1170;22073;-76
2021/11/07 03:52:17;;;;;;;15.40;13.00;;;;;;;5.21;67.43;100600.02;119525;1170;21881;-76
2021/11/07 03:54:57;;;;;;;17.10;13.50;;;;;;;5.25;67.38;100592.57;119331;1170;21850;-76
2021/11/07 03:57:28;;;;;;;20.00;13.70;;;;;;;5.28;67.33;100588.23;118878;1174;21879;-76
2021/11/07 03:59:59;;;;;;;15.60;13.00;;;;;;;5.28;67.03;100591.79;118771;1172;23283;-76
2021/11/07 04:02:27;;;;;;;18.10;13.40;;;;;;;5.25;66.91;100584.54;118306;1178;21922;-76
2021/11/07 04:04:55;;;;;;;18.10;14.50;;;;;;;5.25;67.12;100580.00;118440;1172;21883;-76
2021/11/07 04:07:25;;;;;;;19.10;13.80;;;;;;;5.26;67.04;100571.82;118411;1177;21886;-76
2021/11/07 04:09:53;;;;;;;18.80;14.80;;;;;;;5.25;66.94;100566.52;118371;1175;22608;-76
2021/11/07 04:12:21;;;;;;;16.00;12.90;;;;;;;5.25;66.92;100566.21;118372;1177;23674;-76
2021/11/07 04:14:49;;;;;;;19.40;15.50;;;;;;;5.25;66.94;100562.38;117984;1177;21919;-77
2021/11/07 04:17:20;;;;;;;19.50;16.20;;;;;;;5.27;67.03;100554.65;118274;1177;22658;-75
2021/11/07 04:19:48;;;;;;;18.20;14.80;;;;;;;5.28;66.82;100547.91;118065;1177;21886;-75
2021/11/07 04:22:16;;;;;;;19.00;15.10;;;;;;;5.30;66.86;100549.02;118506;1177;22854;-76
2021/11/07 04:24:44;;;;;;;18.10;14.20;;;;;;;5.32;66.81;100542.48;118465;1174;21914;-76
2021/11/07 04:27:12;;;;;;;18.40;15.30;;;;;;;5.32;66.64;100538.48;118368;1176;23357;-76
2021/11/07 04:29:40;;;;;;;20.20;16.20;;;;;;;5.32;66.67;100533.63;118350;1178;21880;-76
2021/11/07 04:32:08;;;;;;;24.20;16.80;;;;;;;5.32;66.63;100531.16;118428;1178;22979;-76
2021/11/07 04:34:36;;;;;;;25.00;18.50;;;;;;;5.33;66.55;100530.77;118445;1178;21871;-76
2021/11/07 04:37:05;;;;;;;18.40;15.30;;;;;;;5.35;66.63;100527.42;118297;1176;21874;-76
2021/11/07 04:39:33;;;;;;;18.10;14.70;;;;;;;5.37;66.54;100524.83;118671;1171;21857;-77
2021/11/07 04:42:01;;;;;;;16.00;13.40;;;;;;;5.37;66.45;100516.58;119062;1172;23611;-76
2021/11/07 04:44:31;;;;;;;14.60;12.10;;;;;;;5.37;66.39;100505.95;119112;1170;21864;-76
2021/11/07 04:47:00;;;;;;;16.40;12.10;;;;;;;5.40;66.48;100500.78;118851;1171;24129;-76
2021/11/07 04:49:28;;;;;;;17.50;12.60;;;;;;;5.45;66.47;100501.11;118356;1176;23560;-76
2021/11/07 04:51:58;;;;;;;14.60;12.70;;;;;;;5.48;66.46;100493.15;118702;1175;21915;-76
2021/11/07 04:54:30;;;;;;;14.00;11.80;;;;;;;5.51;66.39;100483.77;118502;1175;21865;-76
2021/11/07 04:56:59;;;;;;;13.50;11.70;;;;;;;5.53;66.19;100478.36;118790;1175;23023;-76
2021/11/07 04:59:27;;;;;;;11.70;10.50;;;;;;;5.55;66.26;100481.68;118773;1173;23453;-76
2021/11/07 05:01:56;;;;;;;14.00;12.70;;;;;;;5.58;66.10;100480.94;118495;1175;23571;-76
2021/11/07 05:04:24;;;;;;;13.20;11.60;;;;;;;5.59;65.96;100475.27;118755;1175;21967;-76
2021/11/07 05:06:52;;;;;;;12.60;11.10;;;;;;;5.58;65.83;100475.83;118505;1175;23503;-76
2021/11/07 05:09:21;;;;;;;15.50;12.00;;;;;;;5.59;65.87;100470.33;118808;1175;21931;-75
2021/11/07 05:11:49;;;;;;;15.10;13.00;;;;;;;5.59;65.76;100465.14;118781;1173;21928;-76
2021/11/07 05:14:17;;;;;;;15.00;12.80;;;;;;;5.56;65.79;100461.33;119007;1171;21853;-75
2021/11/07 05:16:46;;;;;;;15.40;12.60;;;;;;;5.58;65.93;100459.09;119310;1170;21875;-75
2021/11/07 05:19:14;;;;;;;13.70;11.80;;;;;;;5.61;65.90;100450.22;119105;1171;21882;-76
2021/11/07 05:21:42;;;;;;;13.50;11.30;;;;;;;5.62;65.68;100443.19;118935;1161;22869;-76
2021/11/07 05:24:10;;;;;;;13.80;12.40;;;;;;;5.62;65.67;100440.73;119128;1172;22513;-75
2021/11/07 05:26:39;;;;;;;15.40;13.70;;;;;;;5.64;65.72;100436.91;119118;1171;23412;-76
2021/11/07 05:29:07;;;;;;;13.30;11.90;;;;;;;5.67;65.63;100429.14;118486;1174;23520;-76
2021/11/07 05:31:36;;;;;;;14.10;11.50;;;;;;;5.67;65.46;100419.48;118355;1178;21914;-76
2021/11/07 05:34:05;;;;;;;14.00;11.80;;;;;;;5.70;65.49;100415.23;118025;1180;21873;-76
2021/11/07 05:36:34;;;;;;;16.30;11.50;;;;;;;5.72;65.41;100415.47;118141;1180;23422;-76
2021/11/07 05:39:03;;;;;;;13.70;12.10;;;;;;;5.74;65.46;100410.86;118098;1167;22917;-77
2021/11/07 05:41:31;;;;;;;13.90;12.00;;;;;;;5.78;65.35;100410.67;117986;1181;21914;-76
2021/11/07 05:44:00;;;;;;;13.90;12.50;;;;;;;5.82;65.33;100404.41;118118;1177;22633;-76
2021/11/07 05:46:28;;;;;;;15.00;12.20;;;;;;;5.83;65.18;100388.52;118357;1176;21913;-76
2021/11/07 05:48:56;;;;;;;16.20;11.60;;;;;;;5.83;64.98;100376.85;118197;1177;23560;-76
2021/11/07 05:51:25;;;;;;;14.70;11.30;;;;;;;5.84;64.89;100374.21;118685;1174;23703;-76
2021/11/07 05:53:53;;;;;;;17.20;12.60;;;;;;;5.85;64.89;100377.05;119029;1170;24114;-76
2021/11/07 05:56:22;;;;;;;12.00;10.70;;;;;;;5.91;64.96;100376.52;119299;1157;23647;-76
2021/11/07 05:58:50;;;;;;;12.20;10.80;;;;;;;5.97;64.91;100379.31;119282;1170;21856;-76
2021/11/07 06:01:25;;;;;;;13.90;10.70;;;;;;;6.03;64.78;100372.86;119278;1167;22894;-77
2021/11/07 06:03:57;;;;;;;13.60;12.00;;;;;;;6.09;64.68;100372.13;119216;1170;23582;-77
2021/11/07 06:06:31;;;;;;;12.80;10.30;;;;;;;6.17;64.60;100376.48;119233;1170;23510;-78
2021/11/07 06:09:02;;;;;;;14.00;10.20;;;;;;;6.24;64.38;100369.35;119265;1170;21868;-78
2021/11/07 06:11:44;;;;;;;12.90;11.20;;;;;;;6.30;64.00;100361.31;118878;1174;22932;-78
2021/11/07 06:14:19;;;;;;;22.80;17.00;;;;;;;6.33;63.71;100356.28;118800;1173;23615;-78
2021/11/07 06:16:49;;;;;;;16.20;11.00;;;;;;;6.35;63.56;100344.77;118361;1174;21852;-78
2021/11/07 06:19:19;;;;;;;13.20;10.20;;;;;;;6.35;63.25;100346.09;118370;1176;21874;-78
2021/11/07 06:21:50;;;;;;;11.40;10.20;;;;;;;6.40;63.30;100349.23;118098;1176;22212;-78
2021/11/07 06:24:26;;;;;;;;;;;;;;;6.41;63.17;100351.25;117967;1180;23503;-78
2021/11/07 06:26:58;;;;;;;11.30;9.70;;;;;;;6.40;63.28;100370.58;117993;1170;22898;-78
2021/11/07 06:29:27;;;;;;;10.60;9.50;;;;;;;6.44;63.41;100387.02;117921;1180;23504;-77
2021/11/07 06:31:59;;;;;;;11.30;10.20;;;;;;;6.53;63.41;100391.58;117946;1180;21898;-77
2021/11/07 06:34:29;;;;;;;12.70;10.20;;;;;;;6.60;63.27;100391.95;117970;1180;21897;-77
2021/11/07 06:37:05;;;;;;;10.40;9.10;;;;;;;6.64;63.09;100387.09;117940;1183;23636;-78
2021/11/07 06:39:39;;;;;;;11.90;10.30;;;;;;;6.65;62.95;100382.23;117708;1180;22849;-77
2021/11/07 06:42:09;;;;;;;10.30;9.10;;;;;;;6.68;62.93;100377.08;118124;1180;21911;-76
2021/11/07 06:44:37;;;;;;;11.00;9.70;;;;;;;6.69;62.81;100369.27;118363;1178;22916;-77
2021/11/07 06:47:08;;;;;;;10.70;9.60;;;;;;;6.69;62.71;100362.83;117979;1179;22896;-77
2021/11/07 06:49:36;;;;;;;12.50;11.20;;;;;;;6.69;62.61;100354.94;118200;1167;22906;-77
2021/11/07 06:52:05;;;;;;;16.10;11.50;;;;;;;6.68;62.65;100345.88;118076;1176;21872;-77
2021/11/07 06:54:34;;;;;;;11.10;10.00;;;;;;;6.70;62.61;100343.61;118750;1174;21863;-77
2021/11/07 06:57:05;;;;;;;13.50;11.60;;;;;;;6.70;62.55;100346.06;118743;1174;22918;-77
2021/11/07 06:59:34;;;;;;;14.90;12.20;;;;;;;6.69;62.40;100343.92;118332;1177;23426;-77
2021/11/07 07:02:02;;;;;;;13.60;12.10;;;;;;;6.70;62.48;100324.58;118445;1177;21924;-76
2021/11/07 07:04:38;;;;;;;13.40;11.30;;;;;;;6.70;62.41;100321.89;118515;1174;21877;-77
2021/11/07 07:07:09;;;;;;;16.10;10.80;;;;;;;6.72;62.36;100317.88;118901;1174;22851;-76
2021/11/07 07:09:46;;;;;;;13.60;11.10;;;;;;;6.74;62.30;100323.15;118912;1171;21905;-77
2021/11/07 07:20:51;;;;;;;13.20;11.70;;;;;;;6.68;62.08;100305.65;118834;1175;24190;-77
2021/11/07 07:23:47;;;;;;;13.20;11.60;;;;;;;6.69;62.22;100303.48;118811;1175;21876;-77
2021/11/07 07:34:26;;;;;;;13.00;11.20;;;;;;;6.91;62.24;100276.39;118827;1174;22967;-78
2021/11/07 07:36:56;;;;;;;12.10;10.80;;;;;;;6.95;62.16;100264.27;118687;1171;22891;-78
2021/11/07 07:39:24;;;;;;;13.00;11.40;;;;;;;7.01;62.09;100251.55;118757;1174;22229;-77
2021/11/07 07:41:52;;;;;;;17.30;15.50;;;;;;;7.07;61.96;100239.80;118815;1175;21865;-77
2021/11/07 07:44:22;;;;;;;16.30;14.60;;;;;;;7.11;61.80;100236.97;118933;1175;23483;-78
2021/11/07 07:46:50;;;;;;;13.40;12.00;;;;;;;7.15;61.73;100235.69;118805;1171;22891;-78
2021/11/07 07:49:19;;;;;;;17.00;13.50;;;;;;;7.16;61.53;100235.28;118491;1175;24144;-74
2021/11/07 07:51:47;;;;;;;17.70;15.30;;;;;;;7.16;61.38;100238.73;118740;1175;23098;-80
2021/11/07 07:54:15;;;;;;;18.80;16.30;;;;;;;7.21;61.50;100235.84;118814;1171;21879;-78
2021/11/07 07:56:43;;;;;;;18.70;15.80;;;;;;;7.26;61.29;100233.80;119233;1170;21935;-78
2021/11/07 07:59:10;;;;;;;16.20;14.30;;;;;;;7.29;61.25;100239.77;119192;1171;23414;-78
2021/11/07 08:01:38;;;;;;;16.50;14.80;;;;;;;7.33;61.14;100238.18;119258;1171;21866;-78
2021/11/07 08:04:07;;;;;;;16.60;14.90;;;;;;;7.36;61.11;100227.66;119313;1170;21891;-78
2021/11/07 08:06:37;;;;;;;14.00;12.40;;;;;;;7.42;61.05;100221.70;119044;1170;22909;-76
2021/11/07 08:09:05;;;;;;;16.30;13.90;;;;;;;7.46;60.88;100215.69;119175;1171;22915;-77
2021/11/07 08:11:32;;;;;;;15.00;11.90;;;;;;;7.49;60.77;100207.44;119157;1170;22894;-77
2021/11/07 08:14:00;;;;;;;16.60;14.60;;;;;;;7.53;60.59;100207.81;119251;1170;21873;-78
2021/11/07 08:16:32;;;;;;;14.10;12.70;;;;;;;7.54;60.27;100199.86;119252;1170;23431;-76
2021/11/07 08:19:00;;;;;;;;;;;;;;;7.53;60.26;100201.42;119255;1170;23490;-75
2021/11/07 08:21:37;;;;;;;13.40;11.60;;;;;;;7.53;60.44;100197.23;119255;1170;23266;-76
2021/11/07 08:24:08;;;;;;;15.40;12.40;;;;;;;7.58;60.41;100195.36;119265;1170;21891;-76
2021/11/07 08:26:41;;;;;;;12.90;11.30;;;;;;;7.67;60.37;100199.96;118844;1163;22891;-76
2021/11/07 08:29:13;;;;;;;15.80;12.60;;;;;;;7.76;60.06;100200.46;118889;1174;21882;-76
2021/11/07 08:31:44;;;;;;;17.00;13.80;;;;;;;7.82;59.96;100196.75;118512;1177;22938;-77
2021/11/07 08:34:14;;;;;;;21.80;19.40;;;;;;;7.90;59.96;100198.48;118725;1176;23507;-77
2021/11/07 08:39:24;;;;;;;15.20;12.70;;;;;;;8.03;59.46;100191.10;118528;1174;23418;-77
2021/11/07 08:42:05;;;;;;;19.60;17.10;;;;;;;8.05;59.20;100184.17;118470;1174;23424;-77
2021/11/07 09:02:02;;;;;;;13.70;12.00;;;;;;;8.37;58.14;100159.58;118423;1177;23510;-78
2021/11/07 09:09:46;;;;;;;14.20;12.70;;;;;;;8.59;57.92;100165.22;118837;1174;21862;-78
2021/11/07 09:12:14;;;;;;;12.70;11.30;;;;;;;8.63;57.92;100161.58;118926;1174;21905;-79
2021/11/07 09:14:44;;;;;;;15.10;11.10;;;;;;;8.71;57.98;100162.35;118811;1167;21857;-79
2021/11/07 09:17:15;;;;;;;15.80;12.70;;;;;;;8.74;57.49;100154.45;118874;1174;22717;-79
2021/11/07 09:19:50;;;;;;;11.60;10.60;;;;;;;8.75;57.44;100157.75;118954;1172;22271;-79
2021/11/07 09:22:30;;;;;;;11.70;10.60;;;;;;;8.79;57.49;100157.97;119133;1170;21860;-79
2021/11/07 09:25:06;;;;;;;12.40;11.10;;;;;;;8.79;57.20;100155.08;119159;1172;23511;-79
2021/11/07 09:27:43;;;;;;;11.20;9.70;;;;;;;8.76;57.05;100147.95;119115;1172;21900;-79
2021/11/07 09:35:59;;;;;;;13.00;11.60;;;;;;;8.74;57.09;100137.29;118904;1172;21862;-77
2021/11/07 09:38:33;;;;;;;13.00;10.60;;;;;;;8.78;57.48;100135.48;119425;1172;21893;-78
2021/11/07 09:44:12;;;;;;;14.90;11.70;;;;;;;8.93;57.70;100127.84;119201;1170;24423;-78
2021/11/07 09:46:40;;;;;;;12.40;11.10;;;;;;;9.01;57.53;100118.06;119314;1171;23417;-78
2021/11/07 09:49:33;;;;;;;10.60;8.70;;;;;;;9.09;57.31;100117.29;119203;1169;22901;-78
2021/11/07 09:52:12;;;;;;;13.10;10.70;;;;;;;9.16;57.22;100108.63;119411;1170;23436;-78
2021/11/07 09:54:53;;;;;;;11.50;10.10;;;;;;;9.22;57.18;100110.53;119293;1170;22627;-78
2021/11/07 09:57:23;;;;;;;12.20;10.00;;;;;;;9.29;56.85;100101.77;119169;1171;23443;-78
2021/11/07 10:00:01;;;;;;;11.30;10.10;;;;;;;9.33;56.71;100098.44;118998;1172;21879;-78
2021/11/07 10:02:39;;;;;;;13.40;11.00;;;;;;;9.39;56.50;100106.45;118789;1175;23511;-80
2021/11/07 10:05:11;;;;;;;17.50;11.30;;;;;;;9.40;56.35;100102.57;118714;1173;21874;-79
2021/11/07 10:07:42;;;;;;;11.20;9.90;;;;;;;9.40;56.08;100104.02;118157;1180;21868;-79
2021/11/07 10:10:22;;;;;;;13.40;12.00;;;;;;;9.40;56.18;100107.23;118066;1176;23553;-78
2021/11/07 10:12:56;;;;;;;12.10;10.70;;;;;;;9.42;56.51;100105.91;118101;1180;22979;-78
2021/11/07 10:15:33;;;;;;;12.90;10.10;;;;;;;9.47;56.64;100105.81;118036;1180;21874;-79
2021/11/07 10:18:10;;;;;;;15.70;11.50;;;;;;;9.41;56.22;100097.20;118186;1180;21895;-78
2021/11/07 10:20:49;;;;;;;14.90;9.70;;;;;;;9.35;56.14;100095.48;117717;1181;23529;-78
2021/11/07 10:23:29;;;;;;;15.30;12.30;;;;;;;9.33;56.38;100089.38;117511;1185;23581;-77
2021/11/07 10:26:09;;;;;;;13.00;10.50;;;;;;;9.29;56.20;100084.99;117572;1185;23547;-78
2021/11/07 10:28:50;;;;;;;17.40;13.40;;;;;;;9.23;56.17;100086.98;117455;1185;21887;-78
2021/11/07 10:31:38;;;;;;;14.40;12.00;;;;;;;9.15;56.23;100082.50;117486;1185;21878;-78
2021/11/07 10:40:04;;;;;;;13.80;11.20;;;;;;;9.08;56.86;100067.25;118508;1177;21866;-79
2021/11/07 10:45:28;;;;;;;10.70;9.60;;;;;;;9.06;56.75;100060.68;118925;1174;22041;-78
2021/11/07 10:48:22;;;;;;;15.30;11.50;;;;;;;9.05;56.90;100058.78;118819;1174;23414;-79
2021/11/07 10:53:53;;;;;;;13.20;11.30;;;;;;;9.01;57.05;100047.81;119278;1170;23548;-79
2021/11/07 10:56:21;;;;;;;16.80;12.80;;;;;;;9.02;57.12;100046.55;119151;1170;21864;-78
2021/11/07 10:58:50;;;;;;;16.60;12.10;;;;;;;9.02;57.20;100050.67;119278;1170;23501;-79
2021/11/07 11:01:23;;;;;;;16.40;13.60;;;;;;;9.03;57.13;100053.41;119272;1170;22832;-78
2021/11/07 11:03:59;;;;;;;18.50;14.40;;;;;;;9.05;57.13;100045.27;119268;1170;21846;-78
2021/11/07 11:06:28;;;;;;;17.60;14.50;;;;;;;9.10;57.44;100042.27;119171;1170;21860;-78
2021/11/07 11:09:10;;;;;;;17.40;14.00;;;;;;;9.15;57.36;100038.42;119338;1170;23410;-78
2021/11/07 11:11:43;;;;;;;15.00;11.80;;;;;;;9.16;57.32;100040.06;119146;1170;21852;-78
2021/11/07 11:17:08;;;;;;;16.10;11.90;;;;;;;9.16;57.63;100030.42;119236;1170;23507;-79
2021/11/07 11:28:16;;;;;;;12.90;11.50;;;;;;;9.17;57.53;100020.65;118949;1173;22815;-78
2021/11/07 11:31:04;;;;;;;12.30;10.50;;;;;;;9.14;57.65;100025.30;118923;1174;22210;-79
2021/11/07 11:33:46;;;;;;;13.00;11.70;;;;;;;9.14;57.71;100019.52;118669;1176;21883;-77
2021/11/07 11:38:54;;;;;;;12.80;11.30;;;;;;;9.21;58.03;100011.47;118793;1176;24325;-79
2021/11/07 11:41:44;;;;;;;19.20;12.20;;;;;;;9.26;58.01;100006.26;118544;1176;22909;-79
2021/11/07 11:44:15;;;;;;;14.30;12.50;;;;;;;9.32;57.75;100006.48;118845;1173;21856;-78
2021/11/07 11:47:00;;;;;;;13.80;12.40;;;;;;;9.36;57.46;100006.27;118951;1170;23438;-78
2021/11/07 11:52:54;;;;;;;15.50;11.50;;;;;;;9.33;57.23;100000.92;119292;1170;22477;-78
2021/11/07 12:06:45;;;;;;;14.10;11.80;;;;;;;9.18;57.23;99993.58;118974;1171;21902;-77
2021/11/07 12:12:26;;;;;;;13.10;11.80;;;;;;;9.01;57.61;99984.94;118973;1173;21855;-78
2021/11/07 12:15:07;;;;;;;13.60;11.90;;;;;;;8.97;57.74;99988.93;119046;1171;21872;-78
2021/11/07 12:17:39;;;;;;;13.80;11.60;;;;;;;8.93;57.87;99983.83;119123;1173;23528;-78
2021/11/07 12:20:30;;;;;;;17.40;14.90;;;;;;;8.91;58.00;99977.55;119331;1170;22703;-78
2021/11/07 12:23:22;;;;;;;19.00;16.90;;;;;;;8.92;58.29;99973.60;119217;1170;21857;-78
2021/11/07 12:25:51;;;;;;;;;;;;;;;8.95;58.48;99975.20;119151;1170;21843;-77
2021/11/07 12:28:43;;;;;;;17.60;14.60;;;;;;;8.91;58.65;99972.34;119175;1160;22323;-78
2021/11/07 12:31:13;;;;;;;15.80;13.50;;;;;;;8.91;58.65;99966.84;119045;1171;24212;-78
2021/11/07 12:33:59;;;;;;;18.00;13.00;;;;;;;8.95;58.69;99961.83;119216;1171;21899;-77
2021/11/07 12:42:11;;;;;;;15.30;13.30;;;;;;;9.05;59.00;99949.60;119016;1173;21851;-78
2021/11/07 12:44:39;;;;;;;14.70;13.10;;;;;;;9.07;58.88;99954.89;118972;1170;22720;-78
2021/11/07 12:47:11;;;;;;;15.00;13.00;;;;;;;9.09;58.80;99956.84;119099;1170;23513;-77
2021/11/07 12:49:59;;;;;;;15.10;13.30;;;;;;;9.12;58.85;99956.38;119142;1171;21875;-77
2021/11/07 12:52:28;;;;;;;15.30;13.70;;;;;;;9.14;58.95;99953.30;119138;1170;22630;-77
2021/11/07 12:55:03;;;;;;;19.60;15.00;;;;;;;9.15;58.81;99945.86;119035;1170;23403;-76
2021/11/07 12:57:39;;;;;;;21.40;19.00;;;;;;;9.12;58.90;99950.87;119348;1170;21939;-77
2021/11/07 13:00:08;;;;;;;24.80;19.10;;;;;;;9.11;59.05;99950.45;119306;1170;21877;-77
2021/11/07 13:02:36;;;;;;;30.40;24.50;;;;;;;9.14;59.06;99946.45;119277;1170;21873;-77
2021/11/07 13:10:38;;;;;;;20.60;16.50;;;;;;;9.19;59.20;99948.15;118947;1174;23597;-77
2021/11/07 13:19:16;;;;;;;24.50;20.20;;;;;;;9.10;59.67;99941.28;118466;1175;23686;-77
2021/11/07 13:24:41;;;;;;;31.20;26.10;;;;;;;9.05;60.06;99940.29;118345;1178;23681;-78
2021/11/07 13:32:32;;;;;;;17.40;14.20;;;;;;;9.02;60.69;99949.92;118703;1175;22515;-77
2021/11/07 13:35:11;;;;;;;16.20;14.50;;;;;;;9.00;60.78;99948.05;118339;1170;21883;-77
2021/11/07 13:37:53;;;;;;;14.20;12.50;;;;;;;8.99;61.08;99946.94;118410;1178;22620;-78
2021/11/07 13:40:34;;;;;;;14.60;12.00;;;;;;;9.00;61.52;99949.41;118338;1178;21891;-77
2021/11/07 13:43:08;;;;;;;15.30;13.30;;;;;;;8.98;61.68;99942.03;118381;1169;23345;-77
2021/11/07 13:45:42;;;;;;;14.90;13.30;;;;;;;8.98;61.84;99944.36;118297;1178;22044;-78
2021/11/07 13:48:30;;;;;;;15.60;13.90;;;;;;;8.99;61.98;99941.64;118399;1171;21864;-77
2021/11/07 13:51:03;;;;;;;14.20;12.40;;;;;;;8.96;62.09;99938.42;118506;1178;22064;-80
2021/11/07 13:53:38;;;;;;;18.90;15.80;;;;;;;8.93;62.22;99934.01;118618;1178;21894;-78
2021/11/07 13:56:12;;;;;;;15.80;14.00;;;;;;;8.92;62.36;99927.98;118724;1175;23431;-79
2021/11/07 13:58:42;;;;;;;17.10;13.10;;;;;;;8.90;62.46;99929.00;118995;1175;21857;-78
2021/11/07 14:01:13;;;;;;;18.80;16.20;;;;;;;8.90;62.61;99931.12;118873;1174;21870;-77
2021/11/07 14:03:43;;;;;;;20.10;16.40;;;;;;;8.91;62.66;99932.28;118540;1176;21860;-77
2021/11/07 14:06:18;;;;;;;18.90;15.60;;;;;;;8.89;62.73;99924.04;118574;1176;21858;-78
2021/11/07 14:08:50;;;;;;;19.50;16.10;;;;;;;8.90;62.65;99922.06;118630;1176;21879;-79